Springfield, MO (65801)

7:53 AM CST on February 22, 2017 (GMT -0600)
West Central | | Change Station
Active Advisory: Dense Fog Advisory

Elev 1312 ft 37.21 °N, 93.31 °W | Updated 20 seconds ago

Fog
Fog
54.2 °F
Feels Like 54.2 °F
N
2.0
Wind Variable Wind from SSE

Today
High -- | Low -- °F
--% Chance of Precip.
Yesterday
High -- | Low -- °F
Precip. -- in
Pressure 29.88 in
Visibility 2.0 miles
Clouds Overcast 200 ft
Dew Point 54 °F
Humidity 98%
Rainfall 0.00 in
Snow Depth Not available.
6:53 AM 6:00 PM
Waning Crescent, 17% visible
SPECI KSGF 221334Z 18010KT 2SM BR OVC002 12/12 A2988 RMK AO2 T01220122
Pressure 29.88 in
Visibility 2.0 miles
Clouds Overcast 200 ft
Dew Point 54 °F
Humidity 98%
Rainfall 0.00 in
Snow Depth Not available.
6:53 AM 6:00 PM
Waning Crescent, 17% visible
SPECI KSGF 221334Z 18010KT 2SM BR OVC002 12/12 A2988 RMK AO2 T01220122

Get Your Daily Forecast Email!

Thanks for signing up!

Be on the lookout for a verification email in your inbox.

You'll start receiving the daily forecast at 8 AM.

×

10-Day Weather Forecast

Almanac

Astronomy

Feb. 22, 2017 Rise Set
Actual Time
Civil Twilight
Nautical Twilight
Astronomical Twilight
Moon
Length of Visible Light
Length of Day
Tomorrow will be .
, % of the Moon is Illuminated

Today's Extremes

State Highs State Lows

Community

WunderPhotos

Upload Photos

1,962,540 photos uploaded!

WunderBlog® & News

Nearby

Air Quality

  Air Quality AQ Index Pollutant
Not available.

Snow Depth

Station Depth Elevation

Earthquake Activity

City Distance Mag. Time & Date
Minimum magnitude displayed is 2.5.

Coastal Water Temperatures

Place Temperature

Stations

Nearby Weather Stations

Station Location Temp. Windchill Dew Point Humidity Wind Precip. Elev Updated Type
                   

Watches & Warnings

Dense Fog Advisory
Issued: 7:22 AM CST Feb. 22, 2017 – National Weather Service

... Dense fog advisory remains in effect until 9 am CST this
morning...

* visibility... areas of dense fog will continue early this
morning and reduce visibility to near one quarter mile or
less.

* Impacts... reductions in visibility will occur over short
distances. Areas of dense fog will impact travel on Highway
60, Highway 65, Highway 54, Highway 13, and Highway 63 as well
as Interstate 44.

Precautionary/preparedness actions...

A dense fog advisory means visibilities will frequently be
reduced to less than one quarter mile. If driving, slow down, use
your headlights, and leave plenty of distance between your
vehicle and others ahead of you.



Wise